Time;durP1;ratioP1;P1;durP2;ratioP2;P2;SDS_P1;SDS_P2;PMS_P1;PMS_P2;Temp;Humidity;BMP_temperature;BMP_pressure;BME280_temperature;BME280_humidity;BME280_pressure;Samples;Min_cycle;Max_cycle;Signal;HPM_P1;HPM_P2
2023/12/09 00:00:13;;;;;;;61.53;9.60;;;1.80;99.90;;;;;;4949347;28;20244;-56
2023/12/09 00:02:39;;;;;;;35.63;7.93;;;1.90;99.90;;;;;;4952497;28;20179;-55
2023/12/09 00:05:06;;;;;;;38.70;8.10;;;1.90;99.90;;;;;;4949437;28;20422;-54
2023/12/09 00:07:32;;;;;;;22.10;8.33;;;1.90;99.90;;;;;;4953053;28;20500;-56
2023/12/09 00:09:58;;;;;;;23.00;7.60;;;1.90;99.90;;;;;;4949068;28;20488;-55
2023/12/09 00:12:23;;;;;;;22.73;7.30;;;1.90;99.90;;;;;;4949892;28;20271;-55
2023/12/09 00:14:49;;;;;;;104.53;10.20;;;1.90;99.90;;;;;;4949373;28;20276;-55
2023/12/09 00:17:15;;;;;;;101.10;10.27;;;1.90;99.90;;;;;;4951106;28;20629;-57
2023/12/09 00:19:40;;;;;;;29.60;7.53;;;1.90;99.90;;;;;;4950595;28;20222;-55
2023/12/09 00:22:06;;;;;;;25.20;6.83;;;1.80;99.90;;;;;;4950536;28;20202;-55
2023/12/09 00:24:31;;;;;;;45.73;8.00;;;1.90;99.90;;;;;;4945175;28;20668;-55
2023/12/09 00:26:57;;;;;;;79.83;9.70;;;1.90;99.90;;;;;;4949571;28;20216;-54
2023/12/09 00:29:22;;;;;;;52.53;10.10;;;1.90;99.90;;;;;;4945460;28;20197;-55
2023/12/09 00:31:48;;;;;;;79.03;11.43;;;1.90;99.90;;;;;;4948492;28;20221;-55
2023/12/09 00:34:13;;;;;;;65.00;10.63;;;1.90;99.90;;;;;;4947907;28;20202;-55
2023/12/09 00:36:39;;;;;;;185.00;15.43;;;1.90;99.90;;;;;;4947963;28;20579;-56
2023/12/09 00:39:05;;;;;;;66.10;11.00;;;1.90;99.90;;;;;;4946512;28;20175;-55
2023/12/09 00:41:31;;;;;;;141.03;12.67;;;1.90;99.90;;;;;;4940491;28;20229;-55
2023/12/09 00:43:56;;;;;;;67.03;11.03;;;1.80;99.90;;;;;;4945565;28;20190;-55
2023/12/09 00:46:22;;;;;;;38.63;9.47;;;1.80;99.90;;;;;;4952524;28;20197;-56
2023/12/09 00:48:47;;;;;;;44.40;10.20;;;1.90;99.90;;;;;;4950383;28;20189;-56
2023/12/09 00:51:13;;;;;;;67.87;10.13;;;1.90;99.90;;;;;;4944124;28;20306;-55
2023/12/09 00:53:39;;;;;;;42.53;10.27;;;1.90;99.90;;;;;;4950758;28;20206;-55
2023/12/09 00:56:05;;;;;;;26.83;9.10;;;1.80;99.90;;;;;;4950673;28;20418;-57
2023/12/09 00:58:30;;;;;;;39.97;8.60;;;1.80;99.90;;;;;;4951117;28;20193;-55
2023/12/09 01:00:56;;;;;;;69.10;9.73;;;1.80;99.90;;;;;;4950972;28;20249;-55
2023/12/09 01:03:22;;;;;;;70.97;10.50;;;1.80;99.90;;;;;;4955368;28;20229;-55
2023/12/09 01:05:47;;;;;;;57.97;8.93;;;1.80;99.90;;;;;;4950572;28;20189;-53
2023/12/09 01:08:13;;;;;;;89.90;12.00;;;1.80;99.90;;;;;;4951033;28;20197;-55
2023/12/09 01:10:38;;;;;;;42.53;8.60;;;1.80;99.90;;;;;;4945229;28;20219;-56
2023/12/09 01:13:04;;;;;;;26.00;8.23;;;1.80;99.90;;;;;;4956482;28;20181;-56
2023/12/09 01:15:30;;;;;;;35.07;9.20;;;1.80;99.90;;;;;;4950542;28;20645;-54
2023/12/09 01:17:55;;;;;;;30.33;9.37;;;1.80;99.90;;;;;;4947007;28;20223;-52
2023/12/09 01:20:21;;;;;;;19.80;8.37;;;1.80;99.90;;;;;;4942045;28;20343;-55
2023/12/09 01:22:47;;;;;;;17.40;8.10;;;1.70;99.90;;;;;;4951671;28;20281;-53
2023/12/09 01:25:13;;;;;;;16.43;6.70;;;1.70;99.90;;;;;;4954030;28;20192;-56
2023/12/09 01:27:38;;;;;;;12.90;6.50;;;1.80;99.90;;;;;;4950642;28;20185;-57
2023/12/09 01:30:05;;;;;;;26.43;8.20;;;1.80;99.90;;;;;;4957111;28;20457;-55
2023/12/09 01:32:31;;;;;;;20.13;7.80;;;1.80;99.90;;;;;;4952554;28;20194;-55
2023/12/09 01:34:57;;;;;;;24.47;8.57;;;1.80;99.90;;;;;;4953299;28;20466;-54
2023/12/09 01:37:22;;;;;;;20.23;8.40;;;1.80;99.90;;;;;;4951654;28;20177;-55
2023/12/09 01:39:48;;;;;;;23.57;8.90;;;1.80;99.90;;;;;;4953822;28;20297;-55
2023/12/09 01:42:14;;;;;;;23.47;8.13;;;1.80;99.90;;;;;;4953341;28;20265;-55
2023/12/09 01:44:39;;;;;;;26.83;9.60;;;1.80;99.90;;;;;;4953978;28;20171;-55
2023/12/09 01:47:06;;;;;;;38.47;8.93;;;1.80;99.90;;;;;;4958731;28;20186;-55
2023/12/09 01:49:33;;;;;;;31.67;8.50;;;1.80;99.90;;;;;;4950222;28;20194;-57
2023/12/09 01:52:00;;;;;;;38.27;8.73;;;1.80;99.90;;;;;;4951701;28;20442;-55
2023/12/09 01:54:27;;;;;;;40.33;9.43;;;1.80;99.90;;;;;;4950152;28;20968;-55
2023/12/09 01:56:54;;;;;;;45.80;8.07;;;1.80;99.90;;;;;;4954041;28;20462;-56
2023/12/09 01:59:20;;;;;;;43.40;9.20;;;1.80;99.90;;;;;;4954220;28;20445;-56
2023/12/09 02:01:47;;;;;;;32.07;8.90;;;1.80;99.90;;;;;;4957323;28;20430;-55
2023/12/09 02:04:14;;;;;;;21.33;9.27;;;1.80;99.90;;;;;;4951974;28;20437;-54
2023/12/09 02:06:40;;;;;;;25.13;8.83;;;1.80;99.90;;;;;;4957425;28;20503;-55
2023/12/09 02:09:06;;;;;;;20.10;8.37;;;1.80;99.90;;;;;;4954849;28;20508;-56
2023/12/09 02:11:51;;;;;;;24.60;9.20;;;1.80;99.90;;;;;;4950856;28;20525;-58
2023/12/09 02:14:23;;;;;;;25.13;8.00;;;1.80;99.90;;;;;;4952799;28;20193;-56
2023/12/09 02:17:12;;;;;;;19.67;8.57;;;1.80;99.90;;;;;;4952781;28;20493;-57
2023/12/09 02:19:39;;;;;;;27.83;8.97;;;1.80;99.90;;;;;;4951676;28;20513;-56
2023/12/09 02:22:09;;;;;;;27.30;8.00;;;1.80;99.90;;;;;;4952099;28;21005;-56
2023/12/09 02:24:35;;;;;;;33.50;9.07;;;1.80;99.90;;;;;;4958605;28;20988;-56
2023/12/09 02:27:15;;;;;;;35.00;8.27;;;1.80;99.90;;;;;;4952326;28;20430;-57
2023/12/09 02:29:59;;;;;;;23.33;8.80;;;1.80;99.90;;;;;;4951101;28;20217;-56
2023/12/09 02:32:29;;;;;;;21.67;8.00;;;1.80;99.90;;;;;;4944993;28;20442;-56
2023/12/09 02:34:56;;;;;;;28.97;9.30;;;1.80;99.90;;;;;;4953893;28;20465;-54
2023/12/09 02:37:22;;;;;;;32.47;9.73;;;1.80;99.90;;;;;;4952488;28;20414;-55
2023/12/09 02:39:48;;;;;;;43.90;9.40;;;1.80;99.90;;;;;;4951909;28;20448;-54
2023/12/09 02:42:14;;;;;;;37.77;8.90;;;1.80;99.90;;;;;;4944379;28;20438;-55
2023/12/09 02:44:42;;;;;;;40.23;10.70;;;1.80;99.90;;;;;;4952902;28;20426;-55
2023/12/09 02:47:14;;;;;;;38.63;8.63;;;1.80;99.90;;;;;;4952304;28;20213;-55
2023/12/09 02:49:40;;;;;;;34.37;8.60;;;1.80;99.90;;;;;;4947778;28;20457;-55
2023/12/09 02:52:06;;;;;;;73.20;10.43;;;1.80;99.90;;;;;;4951330;28;20514;-56
2023/12/09 02:54:32;;;;;;;33.17;8.87;;;1.80;99.90;;;;;;4952199;28;20543;-56
2023/12/09 02:56:57;;;;;;;50.47;10.63;;;1.90;99.90;;;;;;4948876;28;20178;-56
2023/12/09 02:59:23;;;;;;;41.20;10.60;;;1.90;99.90;;;;;;4945644;28;20185;-57
2023/12/09 03:01:48;;;;;;;45.13;9.87;;;1.90;99.90;;;;;;4945564;28;20182;-56
2023/12/09 03:04:14;;;;;;;43.57;9.13;;;1.80;99.90;;;;;;4950867;28;20175;-57
2023/12/09 03:06:40;;;;;;;41.27;9.40;;;1.90;99.90;;;;;;4946637;28;20204;-56
2023/12/09 03:09:06;;;;;;;28.33;8.77;;;1.80;99.90;;;;;;4950328;28;20189;-56
2023/12/09 03:11:32;;;;;;;23.63;8.57;;;1.80;99.90;;;;;;4947946;28;20657;-55
2023/12/09 03:13:57;;;;;;;43.63;10.23;;;1.80;99.90;;;;;;4949851;28;20480;-57
2023/12/09 03:16:23;;;;;;;38.17;10.00;;;1.80;99.90;;;;;;4951743;28;20344;-56
2023/12/09 03:18:48;;;;;;;30.47;10.03;;;1.80;99.90;;;;;;4954061;28;20181;-55
2023/12/09 03:21:15;;;;;;;32.73;8.90;;;1.80;99.90;;;;;;4955140;28;20194;-57
2023/12/09 03:23:44;;;;;;;45.87;9.37;;;1.80;99.90;;;;;;4949041;28;20179;-56
2023/12/09 03:26:16;;;;;;;57.33;10.10;;;1.80;99.90;;;;;;4949781;28;20949;-56
2023/12/09 03:28:42;;;;;;;53.77;9.73;;;1.70;99.90;;;;;;4944328;28;21171;-56
2023/12/09 03:31:10;;;;;;;42.10;10.70;;;1.70;99.90;;;;;;4949448;28;20480;-56
2023/12/09 03:33:37;;;;;;;41.93;10.70;;;1.70;99.90;;;;;;4953225;28;21259;-55
2023/12/09 03:36:03;;;;;;;36.20;8.00;;;1.70;99.90;;;;;;4948751;28;20448;-56
2023/12/09 03:38:29;;;;;;;43.17;9.50;;;1.70;99.90;;;;;;4951540;28;22596;-56
2023/12/09 03:40:54;;;;;;;68.53;10.57;;;1.70;99.90;;;;;;4956310;28;20441;-56
2023/12/09 03:43:20;;;;;;;55.03;12.80;;;1.70;99.90;;;;;;4950913;28;20214;-55
2023/12/09 03:45:45;;;;;;;38.43;9.80;;;1.70;99.90;;;;;;4950174;28;20186;-54
2023/12/09 03:48:11;;;;;;;49.23;10.03;;;1.70;99.90;;;;;;4947137;28;20465;-55
2023/12/09 03:50:36;;;;;;;34.57;9.60;;;1.70;99.90;;;;;;4949999;28;20204;-56
2023/12/09 03:53:02;;;;;;;54.40;8.80;;;1.70;99.90;;;;;;4948723;28;20213;-55
2023/12/09 03:55:28;;;;;;;39.83;9.70;;;1.70;99.90;;;;;;4950719;28;20181;-56
2023/12/09 03:57:53;;;;;;;40.10;9.50;;;1.70;99.90;;;;;;4949327;28;20267;-55
2023/12/09 04:00:19;;;;;;;40.97;8.57;;;1.70;99.90;;;;;;4947760;28;20781;-54
2023/12/09 04:02:45;;;;;;;38.07;10.03;;;1.70;99.90;;;;;;4947279;28;20186;-55
2023/12/09 04:05:11;;;;;;;52.80;8.70;;;1.70;99.90;;;;;;4949609;28;20420;-55
2023/12/09 04:07:36;;;;;;;68.47;9.97;;;1.70;99.90;;;;;;4949134;28;20183;-56
2023/12/09 04:10:03;;;;;;;22.57;7.30;;;1.70;99.90;;;;;;4947719;28;20213;-56
2023/12/09 04:12:29;;;;;;;74.27;8.67;;;1.70;99.90;;;;;;4944520;28;20192;-57
2023/12/09 04:14:54;;;;;;;35.27;8.30;;;1.80;99.90;;;;;;4944960;28;21016;-58
2023/12/09 04:17:21;;;;;;;36.60;7.77;;;1.80;99.90;;;;;;4953542;28;20210;-55
2023/12/09 04:19:47;;;;;;;24.10;7.20;;;1.80;99.90;;;;;;4949772;28;20208;-56
2023/12/09 04:22:13;;;;;;;26.80;7.77;;;1.80;99.90;;;;;;4945503;28;20440;-57
2023/12/09 04:24:40;;;;;;;47.03;8.03;;;1.80;99.90;;;;;;4947063;28;20669;-57
2023/12/09 04:27:05;;;;;;;93.10;10.67;;;1.80;99.90;;;;;;4952333;28;20185;-55
2023/12/09 04:29:31;;;;;;;34.33;8.40;;;1.80;99.90;;;;;;4948350;28;20464;-55
2023/12/09 04:31:57;;;;;;;49.70;8.60;;;1.80;99.90;;;;;;4938070;28;20217;-54
2023/12/09 04:34:22;;;;;;;40.97;7.67;;;1.80;99.90;;;;;;4950084;28;20238;-57
2023/12/09 04:36:48;;;;;;;19.37;6.90;;;1.80;99.90;;;;;;4948664;28;20744;-57
2023/12/09 04:39:13;;;;;;;45.97;8.40;;;1.80;99.90;;;;;;4945861;28;20182;-57
2023/12/09 04:41:40;;;;;;;63.77;8.43;;;1.80;99.90;;;;;;4952344;28;20183;-56
2023/12/09 04:44:05;;;;;;;24.53;7.97;;;1.80;99.90;;;;;;4948187;28;20261;-56
2023/12/09 04:46:31;;;;;;;44.73;7.47;;;1.80;99.90;;;;;;4947734;28;20514;-57
2023/12/09 04:48:57;;;;;;;32.20;7.67;;;1.80;99.90;;;;;;4944788;28;20181;-57
2023/12/09 04:51:23;;;;;;;63.47;10.00;;;1.80;99.90;;;;;;4939277;28;20670;-56
2023/12/09 04:53:49;;;;;;;26.20;8.10;;;1.90;99.90;;;;;;4944171;28;20473;-55
2023/12/09 04:56:14;;;;;;;42.20;9.07;;;1.90;99.90;;;;;;4948462;28;20464;-58
2023/12/09 04:58:40;;;;;;;40.27;8.77;;;1.90;99.90;;;;;;4950757;28;20231;-56
2023/12/09 05:01:05;;;;;;;59.50;10.57;;;1.90;99.90;;;;;;4952349;28;20202;-56
2023/12/09 05:03:31;;;;;;;36.03;8.40;;;1.90;99.90;;;;;;4948524;28;20263;-56
2023/12/09 05:05:57;;;;;;;38.87;8.00;;;1.90;99.90;;;;;;4949072;28;20198;-57
2023/12/09 05:08:22;;;;;;;61.83;12.60;;;1.90;99.90;;;;;;4949879;28;20210;-56
2023/12/09 05:10:48;;;;;;;22.77;8.43;;;1.90;99.90;;;;;;4946821;28;20206;-56
2023/12/09 05:13:14;;;;;;;72.70;9.00;;;1.90;99.90;;;;;;4949503;28;20202;-56
2023/12/09 05:15:39;;;;;;;27.20;8.10;;;1.90;99.90;;;;;;4949648;28;20767;-54
2023/12/09 05:18:05;;;;;;;22.97;7.20;;;1.90;99.90;;;;;;4947890;28;20659;-57
2023/12/09 05:20:30;;;;;;;44.10;9.27;;;1.90;99.90;;;;;;4947825;28;20281;-57
2023/12/09 05:22:56;;;;;;;17.53;6.80;;;1.80;99.90;;;;;;4943874;28;20176;-55
2023/12/09 05:25:22;;;;;;;43.47;7.77;;;1.90;99.90;;;;;;4946131;28;20656;-56
2023/12/09 05:27:47;;;;;;;46.87;7.93;;;1.80;99.90;;;;;;4945553;28;20709;-56
2023/12/09 05:30:13;;;;;;;53.67;8.00;;;1.90;99.90;;;;;;4948849;28;20216;-56
2023/12/09 05:32:39;;;;;;;26.93;8.50;;;1.90;99.90;;;;;;4950600;28;20181;-57
2023/12/09 05:35:05;;;;;;;39.70;7.97;;;1.90;99.90;;;;;;4948194;28;20255;-56
2023/12/09 05:37:30;;;;;;;40.27;8.20;;;1.90;99.90;;;;;;4946609;28;20231;-56
2023/12/09 05:39:56;;;;;;;56.37;8.10;;;1.80;99.90;;;;;;4955481;28;20957;-56
2023/12/09 05:42:21;;;;;;;37.93;9.60;;;1.80;99.90;;;;;;4948410;28;20199;-56
2023/12/09 05:44:47;;;;;;;55.10;9.30;;;1.90;99.90;;;;;;4948533;28;20206;-55
2023/12/09 05:47:12;;;;;;;49.27;8.03;;;1.80;99.90;;;;;;4947540;28;20782;-55
2023/12/09 05:49:38;;;;;;;42.53;8.87;;;1.90;99.90;;;;;;4954427;28;20199;-57
2023/12/09 05:52:04;;;;;;;53.10;9.83;;;1.90;99.90;;;;;;4948616;28;20229;-56
2023/12/09 05:54:31;;;;;;;38.17;9.17;;;1.80;99.90;;;;;;4943322;28;20213;-57
2023/12/09 05:56:57;;;;;;;34.90;9.43;;;1.80;99.90;;;;;;4946705;28;20787;-56
2023/12/09 05:59:23;;;;;;;38.13;9.17;;;1.90;99.90;;;;;;4945232;28;20430;-56
2023/12/09 06:01:49;;;;;;;33.53;8.20;;;1.80;99.90;;;;;;4951530;28;20194;-56
2023/12/09 06:04:15;;;;;;;52.77;11.43;;;1.90;99.90;;;;;;4948435;28;20417;-56
2023/12/09 06:06:40;;;;;;;30.23;8.70;;;1.80;99.90;;;;;;4950002;28;20174;-57
2023/12/09 06:09:06;;;;;;;46.57;8.90;;;1.80;99.90;;;;;;4948479;28;20189;-56
2023/12/09 06:11:32;;;;;;;42.93;9.33;;;1.90;99.90;;;;;;4952615;28;20207;-55
2023/12/09 06:13:57;;;;;;;36.10;8.30;;;1.90;99.90;;;;;;4951804;28;20458;-55
2023/12/09 06:16:23;;;;;;;43.57;8.17;;;1.90;99.90;;;;;;4948668;28;20281;-56
2023/12/09 06:18:49;;;;;;;26.07;8.27;;;1.90;99.90;;;;;;4953932;28;20587;-55
2023/12/09 06:21:22;;;;;;;43.20;8.20;;;1.80;99.90;;;;;;4952270;28;20195;-55
2023/12/09 06:23:47;;;;;;;36.00;8.73;;;1.80;99.90;;;;;;4951413;28;21047;-55
2023/12/09 06:26:13;;;;;;;25.13;7.97;;;1.80;99.90;;;;;;4949593;28;20532;-56
2023/12/09 06:28:38;;;;;;;20.13;7.40;;;1.90;99.90;;;;;;4956515;28;20186;-56
2023/12/09 06:31:04;;;;;;;29.63;9.30;;;1.90;99.90;;;;;;4951726;28;20272;-56
2023/12/09 06:33:30;;;;;;;23.97;8.87;;;1.90;99.90;;;;;;4951658;28;20198;-56
2023/12/09 06:35:56;;;;;;;33.33;9.50;;;1.90;99.90;;;;;;4945144;28;20904;-55
2023/12/09 06:38:22;;;;;;;27.47;9.57;;;1.90;99.90;;;;;;4950856;28;20178;-55
2023/12/09 06:40:47;;;;;;;32.20;8.63;;;1.90;99.90;;;;;;4951454;28;20454;-56
2023/12/09 06:43:13;;;;;;;36.47;8.07;;;1.90;99.90;;;;;;4952232;28;20850;-56
2023/12/09 06:45:39;;;;;;;34.33;7.87;;;1.90;99.90;;;;;;4950520;28;20210;-56
2023/12/09 06:48:04;;;;;;;24.57;7.57;;;2.00;99.90;;;;;;4948729;28;20183;-56
2023/12/09 06:50:30;;;;;;;26.13;7.83;;;2.00;99.90;;;;;;4954026;28;20190;-55
2023/12/09 06:52:56;;;;;;;25.50;8.73;;;2.00;99.90;;;;;;4952581;28;20433;-56
2023/12/09 06:55:21;;;;;;;21.83;8.57;;;2.00;99.90;;;;;;4951310;28;20212;-55
2023/12/09 06:57:47;;;;;;;22.00;7.90;;;2.00;99.90;;;;;;4951330;28;20202;-57
2023/12/09 07:00:13;;;;;;;24.83;8.17;;;2.00;99.90;;;;;;4951987;28;20592;-57
2023/12/09 07:02:39;;;;;;;33.17;7.90;;;2.00;99.90;;;;;;4948429;28;20249;-55
2023/12/09 07:05:06;;;;;;;24.13;6.97;;;2.00;99.90;;;;;;4950885;28;20940;-55
2023/12/09 07:07:32;;;;;;;37.77;7.27;;;2.00;99.90;;;;;;4951392;28;20445;-56
2023/12/09 07:09:58;;;;;;;25.90;9.90;;;2.00;99.90;;;;;;4952907;28;20512;-54
2023/12/09 07:12:23;;;;;;;22.57;9.27;;;2.00;99.90;;;;;;4947702;28;20433;-55
2023/12/09 07:14:49;;;;;;;24.87;9.30;;;2.00;99.90;;;;;;4949922;28;20213;-56
2023/12/09 07:17:15;;;;;;;32.30;9.70;;;2.00;99.90;;;;;;4951061;28;20221;-54
2023/12/09 07:19:40;;;;;;;27.03;10.00;;;2.00;99.90;;;;;;4952511;28;20229;-55
2023/12/09 07:22:06;;;;;;;22.43;8.90;;;2.10;99.90;;;;;;4936254;28;20177;-55
2023/12/09 07:24:31;;;;;;;31.20;8.87;;;2.10;99.90;;;;;;4938820;28;20745;-55
2023/12/09 07:26:57;;;;;;;27.00;8.70;;;2.10;99.90;;;;;;4946872;28;20274;-56
2023/12/09 07:29:24;;;;;;;29.63;7.77;;;2.10;99.90;;;;;;4951326;28;20668;-56
2023/12/09 07:31:50;;;;;;;38.43;8.27;;;2.10;99.90;;;;;;4954745;28;20719;-53
2023/12/09 07:34:18;;;;;;;24.00;7.17;;;2.10;99.90;;;;;;4948574;28;20560;-56
2023/12/09 07:36:43;;;;;;;38.73;9.53;;;2.20;99.90;;;;;;4952598;28;20263;-56
2023/12/09 07:39:09;;;;;;;83.13;11.17;;;2.20;99.90;;;;;;4947343;28;20858;-56
2023/12/09 07:41:35;;;;;;;91.63;12.30;;;2.20;99.90;;;;;;4952189;28;20731;-56
2023/12/09 07:44:01;;;;;;;122.77;20.83;;;2.20;99.90;;;;;;4950997;28;20248;-56
2023/12/09 07:46:27;;;;;;;79.23;17.83;;;2.20;99.90;;;;;;4948602;28;20799;-55
2023/12/09 07:48:52;;;;;;;124.83;20.20;;;2.20;99.90;;;;;;4952872;28;20539;-53
2023/12/09 07:51:18;;;;;;;91.83;18.50;;;2.30;99.90;;;;;;4944431;28;20297;-53
2023/12/09 07:53:43;;;;;;;110.97;18.23;;;2.30;99.90;;;;;;4946222;28;20203;-58
2023/12/09 07:56:09;;;;;;;85.77;16.60;;;2.40;99.90;;;;;;4942133;28;20270;-56
2023/12/09 07:58:35;;;;;;;83.67;16.00;;;2.40;99.90;;;;;;4943408;28;20193;-55
2023/12/09 08:01:01;;;;;;;50.70;14.87;;;2.50;99.90;;;;;;4944174;28;20199;-57
2023/12/09 08:03:30;;;;;;;64.40;16.40;;;2.50;99.90;;;;;;4948641;28;20174;-57
2023/12/09 08:05:56;;;;;;;44.30;15.73;;;2.50;99.90;;;;;;4939943;28;20512;-55
2023/12/09 08:08:21;;;;;;;81.00;17.33;;;2.60;99.90;;;;;;4948870;28;20905;-58
2023/12/09 08:10:47;;;;;;;59.33;16.97;;;2.60;99.90;;;;;;4946117;28;20272;-59
2023/12/09 08:13:13;;;;;;;64.57;18.97;;;2.70;99.90;;;;;;4946333;28;20207;-58
2023/12/09 08:15:38;;;;;;;92.63;21.07;;;2.70;99.90;;;;;;4954277;28;20265;-58
2023/12/09 08:18:04;;;;;;;58.27;17.60;;;2.80;99.90;;;;;;4944621;28;20170;-58
2023/12/09 08:20:30;;;;;;;65.97;18.17;;;2.80;99.90;;;;;;4950077;28;20733;-57
2023/12/09 08:22:55;;;;;;;59.20;19.17;;;2.90;99.90;;;;;;4951131;28;20188;-58
2023/12/09 08:25:21;;;;;;;65.87;17.80;;;2.90;99.90;;;;;;4940705;28;20196;-58
2023/12/09 08:27:46;;;;;;;42.60;17.23;;;3.00;99.90;;;;;;4945098;28;20738;-58
2023/12/09 08:30:12;;;;;;;60.47;17.27;;;3.00;99.90;;;;;;4944423;28;20210;-58
2023/12/09 08:32:42;;;;;;;42.53;15.13;;;3.10;99.90;;;;;;4944601;28;20269;-58
2023/12/09 08:35:09;;;;;;;73.33;18.60;;;3.20;99.90;;;;;;4941141;28;20210;-59
2023/12/09 08:37:35;;;;;;;56.77;17.03;;;3.20;99.90;;;;;;4940176;28;20440;-59
2023/12/09 08:40:09;;;;;;;69.60;15.37;;;3.30;99.90;;;;;;4941385;28;20992;-59
2023/12/09 08:42:39;;;;;;;36.17;14.47;;;3.30;99.90;;;;;;4949089;28;20438;-60
2023/12/09 08:45:05;;;;;;;46.27;15.03;;;3.30;99.90;;;;;;4946606;28;20418;-59
2023/12/09 08:47:31;;;;;;;53.67;13.67;;;3.30;99.90;;;;;;4945907;28;20428;-59
2023/12/09 08:49:56;;;;;;;33.27;13.13;;;3.30;99.90;;;;;;4941949;28;21071;-58
2023/12/09 08:52:22;;;;;;;37.00;13.37;;;3.40;99.90;;;;;;4946245;28;20200;-58
2023/12/09 08:54:47;;;;;;;30.23;12.20;;;3.40;99.90;;;;;;4944638;28;20220;-58
2023/12/09 08:57:13;;;;;;;26.73;11.50;;;3.40;99.90;;;;;;4943332;28;20214;-58
2023/12/09 08:59:39;;;;;;;40.97;14.13;;;3.50;99.90;;;;;;4944413;28;20203;-57
2023/12/09 09:02:04;;;;;;;35.27;14.50;;;3.50;99.90;;;;;;4946793;28;20271;-57
2023/12/09 09:04:30;;;;;;;32.33;13.57;;;3.50;99.90;;;;;;4944925;28;20656;-58
2023/12/09 09:06:55;;;;;;;28.90;12.83;;;3.60;99.90;;;;;;4940377;28;20337;-56
2023/12/09 09:09:21;;;;;;;33.17;12.70;;;3.60;99.90;;;;;;4948770;28;20182;-57
2023/12/09 09:11:46;;;;;;;29.97;11.97;;;3.60;99.90;;;;;;4948552;28;20559;-54
2023/12/09 09:14:12;;;;;;;30.23;12.57;;;3.60;99.90;;;;;;4948208;28;20704;-58
2023/12/09 09:16:38;;;;;;;29.70;12.10;;;3.60;99.90;;;;;;4943765;28;20197;-57
2023/12/09 09:19:03;;;;;;;30.87;11.63;;;3.60;99.90;;;;;;4943154;28;20187;-57
2023/12/09 09:21:29;;;;;;;31.77;11.90;;;3.60;99.90;;;;;;4947956;28;20263;-56
2023/12/09 09:23:54;;;;;;;28.10;12.50;;;3.60;99.90;;;;;;4941316;28;20214;-56
2023/12/09 09:26:21;;;;;;;46.63;13.70;;;3.60;99.90;;;;;;4944527;28;20220;-56
2023/12/09 09:28:47;;;;;;;136.87;17.73;;;3.60;99.90;;;;;;4947170;28;20198;-57
2023/12/09 09:31:13;;;;;;;67.83;14.33;;;3.60;99.90;;;;;;4943497;28;20466;-58
2023/12/09 09:33:41;;;;;;;76.10;18.70;;;3.60;99.90;;;;;;4942698;28;20786;-57
2023/12/09 09:36:07;;;;;;;46.70;17.03;;;3.50;99.90;;;;;;4945539;28;20201;-58
2023/12/09 09:38:34;;;;;;;60.00;15.20;;;3.50;99.90;;;;;;4945160;28;20441;-57
2023/12/09 09:41:05;;;;;;;39.50;14.83;;;3.50;99.90;;;;;;4950799;28;20450;-56
2023/12/09 09:43:36;;;;;;;50.57;14.23;;;3.50;99.90;;;;;;4952260;28;20422;-58
2023/12/09 09:46:03;;;;;;;52.07;14.30;;;3.50;99.90;;;;;;4951109;28;21055;-58
2023/12/09 09:48:33;;;;;;;57.50;14.13;;;3.50;99.90;;;;;;4955614;28;20450;-59
2023/12/09 09:51:03;;;;;;;41.30;16.43;;;3.50;99.90;;;;;;4948839;28;20468;-57
2023/12/09 09:54:09;;;;;;;33.50;14.90;;;3.50;99.90;;;;;;4952165;28;20454;-58
2023/12/09 09:56:36;;;;;;;31.00;12.77;;;3.50;99.90;;;;;;4916901;28;20430;-57
2023/12/09 09:59:03;;;;;;;22.90;9.80;;;3.60;99.90;;;;;;4945953;28;20434;-51
2023/12/09 10:01:31;;;;;;;22.17;10.60;;;3.60;99.90;;;;;;4946425;28;20473;-56
2023/12/09 10:03:56;;;;;;;21.00;10.73;;;3.70;99.90;;;;;;4946377;28;20437;-58
2023/12/09 10:06:24;;;;;;;22.43;9.73;;;3.70;99.90;;;;;;4941536;28;20863;-54
2023/12/09 10:08:50;;;;;;;26.63;10.47;;;3.70;99.90;;;;;;4949392;28;20178;-55
2023/12/09 10:11:15;;;;;;;22.57;9.97;;;3.70;99.90;;;;;;4947799;28;20873;-60
2023/12/09 10:13:43;;;;;;;18.90;9.73;;;3.80;99.90;;;;;;4952009;28;20553;-59
2023/12/09 10:16:08;;;;;;;22.67;9.80;;;3.80;99.90;;;;;;4946754;28;20192;-58
2023/12/09 10:18:35;;;;;;;23.17;9.83;;;3.90;99.90;;;;;;4949783;28;20924;-58
2023/12/09 10:21:01;;;;;;;26.10;11.80;;;3.90;99.90;;;;;;4949790;28;20198;-58
2023/12/09 10:23:27;;;;;;;27.67;12.57;;;3.90;99.90;;;;;;4949007;28;20871;-58
2023/12/09 10:25:52;;;;;;;28.73;11.43;;;3.90;99.90;;;;;;4946182;28;20171;-57
2023/12/09 10:28:19;;;;;;;23.77;10.93;;;3.90;99.90;;;;;;4942130;28;20493;-60
2023/12/09 10:30:45;;;;;;;17.37;10.30;;;3.90;99.90;;;;;;4944559;28;20577;-59
2023/12/09 10:33:12;;;;;;;23.73;10.97;;;3.90;99.90;;;;;;4946997;28;20430;-58
2023/12/09 10:35:38;;;;;;;23.57;11.53;;;3.90;99.90;;;;;;4945432;28;20422;-58
2023/12/09 10:38:08;;;;;;;21.70;10.13;;;3.90;99.90;;;;;;4947060;28;21017;-56
2023/12/09 10:40:34;;;;;;;21.00;10.60;;;4.00;99.90;;;;;;4944624;28;20897;-59
2023/12/09 10:43:02;;;;;;;20.63;10.47;;;4.00;99.90;;;;;;4936515;28;20513;-58
2023/12/09 10:45:28;;;;;;;23.33;10.10;;;4.00;99.90;;;;;;4945453;28;20278;-58
2023/12/09 10:47:54;;;;;;;20.20;10.13;;;4.00;99.90;;;;;;4948385;28;20928;-58
2023/12/09 10:50:20;;;;;;;22.07;10.37;;;4.00;99.90;;;;;;4949838;28;20562;-59
2023/12/09 10:52:46;;;;;;;20.73;10.10;;;4.00;99.90;;;;;;4946793;28;21037;-60
2023/12/09 10:55:11;;;;;;;23.33;11.20;;;4.00;99.90;;;;;;4949759;28;20826;-59
2023/12/09 10:57:41;;;;;;;17.57;9.30;;;4.00;99.90;;;;;;4942822;28;20236;-58
2023/12/09 11:00:10;;;;;;;20.63;9.97;;;4.10;99.90;;;;;;4938551;28;20639;-58
2023/12/09 11:02:38;;;;;;;17.13;9.47;;;4.10;99.90;;;;;;4946757;28;20442;-60
2023/12/09 11:05:05;;;;;;;23.97;9.83;;;4.10;99.90;;;;;;4942211;28;20960;-57
2023/12/09 11:07:34;;;;;;;16.40;9.27;;;4.10;99.90;;;;;;4946057;28;20491;-57
2023/12/09 11:10:00;;;;;;;18.37;9.10;;;4.00;99.90;;;;;;4939138;28;20485;-59
2023/12/09 11:12:27;;;;;;;16.33;8.43;;;4.10;99.90;;;;;;4945446;28;20971;-57
2023/12/09 11:14:53;;;;;;;17.47;8.63;;;4.10;99.90;;;;;;4944504;28;21009;-59
2023/12/09 11:17:33;;;;;;;19.43;10.27;;;4.10;99.90;;;;;;4949139;28;20932;-56
2023/12/09 11:20:04;;;;;;;18.53;9.30;;;4.10;99.90;;;;;;4942738;28;20205;-58
2023/12/09 11:22:30;;;;;;;19.50;9.73;;;4.10;99.90;;;;;;4943423;28;20805;-59
2023/12/09 11:24:55;;;;;;;23.37;10.00;;;4.10;99.90;;;;;;4941681;28;20496;-56
2023/12/09 11:27:21;;;;;;;19.30;10.00;;;4.10;99.90;;;;;;4944532;28;20194;-57
2023/12/09 11:29:47;;;;;;;21.83;9.77;;;4.10;99.90;;;;;;4946950;28;20312;-57
2023/12/09 11:32:13;;;;;;;19.10;9.63;;;4.10;99.90;;;;;;4945694;28;20535;-56
2023/12/09 11:34:39;;;;;;;17.90;10.20;;;4.10;99.90;;;;;;4943270;28;20271;-57
2023/12/09 11:37:08;;;;;;;22.53;10.53;;;4.10;99.90;;;;;;4941303;28;20207;-59
2023/12/09 11:39:34;;;;;;;17.83;10.00;;;4.00;99.90;;;;;;4946400;28;20449;-55
2023/12/09 11:42:00;;;;;;;21.47;10.60;;;4.00;99.90;;;;;;4948557;28;21084;-57
2023/12/09 11:44:27;;;;;;;19.93;10.70;;;4.10;99.90;;;;;;4947026;28;20192;-55
2023/12/09 11:46:53;;;;;;;19.83;9.97;;;4.10;99.90;;;;;;4946424;28;21035;-53
2023/12/09 11:49:19;;;;;;;17.67;10.27;;;4.10;99.90;;;;;;4945119;28;20438;-57
2023/12/09 11:51:45;;;;;;;18.13;9.50;;;4.10;99.90;;;;;;4945044;28;20443;-56
2023/12/09 11:54:11;;;;;;;17.67;9.30;;;4.20;99.90;;;;;;4944797;28;20557;-56
2023/12/09 11:56:37;;;;;;;20.50;10.07;;;4.20;99.90;;;;;;4944679;28;20205;-59
2023/12/09 11:59:05;;;;;;;21.80;10.23;;;4.20;99.90;;;;;;4946238;28;20178;-56
2023/12/09 12:01:31;;;;;;;23.97;11.90;;;4.30;99.90;;;;;;4944002;28;20502;-57
2023/12/09 12:03:58;;;;;;;23.83;11.20;;;4.30;99.90;;;;;;4944406;28;20446;-55
2023/12/09 12:06:24;;;;;;;21.03;10.40;;;4.30;99.90;;;;;;4942914;28;21169;-57
2023/12/09 12:08:51;;;;;;;18.37;10.40;;;4.30;99.90;;;;;;4947360;28;20437;-57
2023/12/09 12:11:20;;;;;;;19.57;10.77;;;4.40;99.90;;;;;;4948500;28;20202;-57
2023/12/09 12:13:47;;;;;;;18.83;10.70;;;4.40;99.90;;;;;;4941905;28;20596;-57
2023/12/09 12:16:14;;;;;;;19.30;10.00;;;4.40;99.90;;;;;;4942016;28;20434;-58
2023/12/09 12:18:39;;;;;;;22.17;10.10;;;4.50;99.90;;;;;;4944787;28;20439;-60
2023/12/09 12:21:06;;;;;;;16.70;9.10;;;4.50;99.90;;;;;;4964038;23;23101;-61
2023/12/09 12:23:32;;;;;;;21.33;10.00;;;4.50;99.90;;;;;;4943765;28;20167;-60
2023/12/09 12:25:58;;;;;;;16.10;9.53;;;4.50;99.90;;;;;;4945844;28;20426;-60
2023/12/09 12:28:24;;;;;;;16.83;9.90;;;4.50;99.90;;;;;;4945845;28;20524;-61
2023/12/09 12:30:59;;;;;;;20.53;10.80;;;4.40;99.90;;;;;;4940533;28;20557;-60
2023/12/09 12:33:28;;;;;;;18.50;10.10;;;4.40;99.90;;;;;;4943485;28;20483;-61
2023/12/09 12:35:54;;;;;;;19.90;10.60;;;4.40;99.90;;;;;;4948467;28;20429;-58
2023/12/09 12:38:24;;;;;;;27.80;14.03;;;4.40;99.90;;;;;;4952395;28;20414;-60